Time;durP1;ratioP1;P1;durP2;ratioP2;P2;SDS_P1;SDS_P2;PMS_P1;PMS_P2;Temp;Humidity;BMP_temperature;BMP_pressure;BME280_temperature;BME280_humidity;BME280_pressure;Samples;Min_cycle;Max_cycle;Signal;HPM_P1;HPM_P2
2022/01/27 00:00:43;;;;;;;;;;;-0.50;99.90;;;;;;5069807;28;19915;-79
2022/01/27 00:05:39;;;;;;;;;;;-0.70;99.90;;;;;;5070013;28;20373;-80
2022/01/27 00:13:17;;;;;;;;;;;-0.80;99.90;;;;;;5077690;28;20448;-79
2022/01/27 00:15:46;;;;;;;;;;;-0.80;99.90;;;;;;5068167;28;19911;-80
2022/01/27 00:18:21;;;;;;;;;;;-0.90;99.90;;;;;;5068041;28;19915;-80
2022/01/27 00:20:48;;;;;;;;;;;-0.90;99.90;;;;;;5068092;28;19917;-79
2022/01/27 00:23:14;;;;;;;;;;;-0.90;99.90;;;;;;5068579;28;19963;-80
2022/01/27 00:25:40;;;;;;;;;;;-0.80;99.90;;;;;;5070599;28;20067;-80
2022/01/27 00:28:05;;;;;;;;;;;-0.70;99.90;;;;;;5072032;28;19909;-80
2022/01/27 00:30:34;;;;;;;;;;;-0.40;99.90;;;;;;5073242;28;19964;-81
2022/01/27 00:33:00;;;;;;;;;;;-0.30;99.90;;;;;;5071113;28;19904;-81
2022/01/27 00:35:26;;;;;;;;;;;-0.10;99.90;;;;;;5071686;28;19911;-80
2022/01/27 00:37:51;;;;;;;;;;;0.10;99.90;;;;;;5072311;28;19909;-81
2022/01/27 00:40:17;;;;;;;;;;;0.20;99.90;;;;;;5070366;28;19913;-80
2022/01/27 00:42:42;;;;;;;;;;;0.40;99.90;;;;;;5071196;28;19915;-79
2022/01/27 00:45:09;;;;;;;;;;;0.30;99.90;;;;;;5069630;28;19915;-80
2022/01/27 00:47:34;;;;;;;;;;;0.30;99.90;;;;;;5069572;28;19908;-80
2022/01/27 00:50:00;;;;;;;;;;;0.30;99.90;;;;;;5069190;28;19912;-80
2022/01/27 00:52:36;;;;;;;;;;;0.20;99.90;;;;;;5069357;28;19906;-80
2022/01/27 00:55:02;;;;;;;;;;;0.00;99.90;;;;;;5069353;28;19908;-80
2022/01/27 00:57:42;;;;;;;;;;;-0.20;99.90;;;;;;5068612;28;19915;-79
2022/01/27 01:00:09;;;;;;;;;;;-0.40;99.90;;;;;;5068165;28;19916;-80
2022/01/27 01:07:52;;;;;;;;;;;-0.70;99.90;;;;;;5073491;28;19892;-81
2022/01/27 01:13:42;;;;;;;;;;;-0.90;99.90;;;;;;5066872;28;19912;-80
2022/01/27 01:15:41;;;;;;;;;;;-1.00;99.90;;;;;;5067121;28;19908;-79
2022/01/27 01:31:44;;;;;;;;;;;-1.10;99.90;;;;;;5069138;28;19923;-80
2022/01/27 01:34:23;;;;;;;;;;;-1.20;99.90;;;;;;5067465;28;19905;-79
2022/01/27 01:39:22;;;;;;;;;;;-1.50;99.90;;;;;;5069271;28;19931;-79
2022/01/27 01:41:47;;;;;;;;;;;-1.50;99.90;;;;;;5068719;28;19920;-80
2022/01/27 01:44:13;;;;;;;;;;;-1.50;99.90;;;;;;5069373;28;19995;-80
2022/01/27 01:46:39;;;;;;;;;;;-1.70;99.90;;;;;;5068787;28;20828;-81
2022/01/27 01:49:05;;;;;;;;;;;-1.70;99.90;;;;;;5067079;28;20384;-79
2022/01/27 01:51:33;;;;;;;;;;;-1.80;99.90;;;;;;5066491;28;19904;-80
2022/01/27 01:53:59;;;;;;;;;;;-1.80;99.90;;;;;;5066001;28;19920;-80
2022/01/27 01:56:24;;;;;;;;;;;-1.90;99.90;;;;;;5065568;28;19905;-78
2022/01/27 01:58:50;;;;;;;;;;;-1.90;99.90;;;;;;5065104;28;19927;-80
2022/01/27 02:01:16;;;;;;;;;;;-1.90;99.90;;;;;;5065316;28;19935;-79
2022/01/27 02:03:41;;;;;;;;;;;-1.90;99.90;;;;;;5064929;28;19909;-80
2022/01/27 02:06:11;;;;;;;;;;;-2.00;99.90;;;;;;5066517;28;19915;-79
2022/01/27 02:08:45;;;;;;;;;;;-2.10;99.90;;;;;;5065889;28;19905;-78
2022/01/27 02:19:26;;;;;;;;;;;-2.20;99.90;;;;;;5067118;28;19934;-80
2022/01/27 02:21:54;;;;;;;;;;;-2.20;99.90;;;;;;5066147;28;19916;-80
2022/01/27 02:24:21;;;;;;;;;;;-2.20;99.90;;;;;;5067262;28;20390;-79
2022/01/27 02:26:49;;;;;;;;;;;-2.20;99.90;;;;;;5066943;28;19908;-80
2022/01/27 02:29:18;;;;;;;;;;;-2.20;99.90;;;;;;5071117;28;19919;-80
2022/01/27 02:31:44;;;;;;;;;;;-2.20;99.90;;;;;;5069347;28;19908;-79
2022/01/27 02:34:10;;;;;;;;;;;-2.10;99.90;;;;;;5067823;28;19924;-80
2022/01/27 02:36:36;;;;;;;;;;;-2.10;99.90;;;;;;5069489;28;19905;-80
2022/01/27 02:39:03;;;;;;;;;;;-2.00;99.90;;;;;;5075349;28;19962;-80
2022/01/27 02:41:30;;;;;;;;;;;-1.90;99.90;;;;;;5071310;28;19897;-81
2022/01/27 02:43:56;;;;;;;;;;;-1.90;99.90;;;;;;5068634;28;19988;-81
2022/01/27 02:46:25;;;;;;;;;;;-1.80;99.90;;;;;;5067479;28;19908;-80
2022/01/27 02:48:50;;;;;;;;;;;-1.80;99.90;;;;;;5068929;28;19927;-81
2022/01/27 02:51:16;;;;;;;;;;;-1.80;99.90;;;;;;5071942;28;19904;-79
2022/01/27 02:53:41;;;;;;;;;;;-1.70;99.90;;;;;;5075723;28;19975;-80
2022/01/27 02:56:07;;;;;;;;;;;-1.70;99.90;;;;;;5071039;28;20456;-80
2022/01/27 02:58:33;;;;;;;;;;;-1.70;99.90;;;;;;5065780;28;19905;-80
2022/01/27 03:00:59;;;;;;;;;;;-1.70;99.90;;;;;;5065420;28;19976;-80
2022/01/27 03:03:24;;;;;;;;;;;-1.80;99.90;;;;;;5064676;28;19905;-80
2022/01/27 03:05:50;;;;;;;;;;;-1.80;99.90;;;;;;5062848;28;20369;-80
2022/01/27 03:08:15;;;;;;;;;;;-1.90;99.90;;;;;;5065134;28;19904;-80
2022/01/27 03:10:48;;;;;;;;;;;-1.90;99.90;;;;;;5063379;28;19908;-80
2022/01/27 03:13:13;;;;;;;;;;;-2.00;99.90;;;;;;5064223;28;19912;-80
2022/01/27 03:15:39;;;;;;;;;;;-2.10;99.90;;;;;;5065093;28;19908;-80
2022/01/27 03:18:04;;;;;;;;;;;-2.10;99.90;;;;;;5066569;28;20273;-80
2022/01/27 03:20:34;;;;;;;;;;;-2.20;99.90;;;;;;5065613;28;19939;-80
2022/01/27 03:23:00;;;;;;;;;;;-2.20;99.90;;;;;;5066742;28;19912;-80
2022/01/27 03:25:26;;;;;;;;;;;-2.20;99.90;;;;;;5066529;28;19908;-80
2022/01/27 03:27:51;;;;;;;;;;;-2.20;99.90;;;;;;5067665;28;19950;-80
2022/01/27 03:30:17;;;;;;;;;;;-2.20;99.90;;;;;;5066226;28;19916;-81
2022/01/27 03:32:43;;;;;;;;;;;-2.20;99.90;;;;;;5068470;28;19905;-80
2022/01/27 03:35:09;;;;;;;;;;;-2.10;99.90;;;;;;5068602;28;19968;-80
2022/01/27 03:37:35;;;;;;;;;;;-2.10;99.90;;;;;;5068713;28;19905;-80
2022/01/27 03:40:00;;;;;;;;;;;-2.20;99.90;;;;;;5066610;28;19909;-79
2022/01/27 03:42:27;;;;;;;;;;;-2.20;99.90;;;;;;5065789;28;20007;-80
2022/01/27 03:44:52;;;;;;;;;;;-2.10;99.90;;;;;;5065478;28;19911;-80
2022/01/27 03:47:18;;;;;;;;;;;-2.10;99.90;;;;;;5065806;28;20361;-80
2022/01/27 03:49:43;;;;;;;;;;;-2.10;99.90;;;;;;5065651;28;19916;-80
2022/01/27 03:52:09;;;;;;;;;;;-2.00;99.90;;;;;;5063943;28;19909;-80
2022/01/27 03:54:34;;;;;;;;;;;-2.00;99.90;;;;;;5065115;28;20277;-80
2022/01/27 03:57:00;;;;;;;;;;;-2.00;99.90;;;;;;5064129;28;19905;-79
2022/01/27 03:59:26;;;;;;;;;;;-1.90;99.90;;;;;;5066552;28;20011;-80
2022/01/27 04:01:52;;;;;;;;;;;-1.90;99.90;;;;;;5067025;28;19943;-81
2022/01/27 04:04:18;;;;;;;;;;;-1.70;99.90;;;;;;5066652;28;19905;-79
2022/01/27 04:06:44;;;;;;;;;;;-1.60;99.90;;;;;;5065068;28;19905;-80
2022/01/27 04:09:10;;;;;;;;;;;-1.50;99.90;;;;;;5071298;28;19909;-79
2022/01/27 04:11:36;;;;;;;;;;;-1.40;99.90;;;;;;5071876;28;20318;-80
2022/01/27 04:14:02;;;;;;;;;;;-1.30;99.90;;;;;;5065438;28;20300;-80
2022/01/27 04:16:28;;;;;;;;;;;-1.20;99.90;;;;;;5065164;28;19960;-81
2022/01/27 04:18:53;;;;;;;;;;;-1.20;99.90;;;;;;5064330;28;19909;-80
2022/01/27 04:21:19;;;;;;;;;;;-1.10;99.90;;;;;;5063803;28;19920;-79
2022/01/27 04:23:44;;;;;;;;;;;-1.00;99.90;;;;;;5064889;28;19966;-80
2022/01/27 04:26:13;;;;;;;;;;;-1.00;99.90;;;;;;5063968;28;19954;-80
2022/01/27 04:28:39;;;;;;;;;;;-0.90;99.90;;;;;;5064835;28;19912;-80
2022/01/27 04:31:07;;;;;;;;;;;-0.90;99.90;;;;;;5064326;28;19991;-80
2022/01/27 04:33:35;;;;;;;;;;;-0.80;99.90;;;;;;5064920;28;19917;-79
2022/01/27 04:36:05;;;;;;;;;;;-0.90;99.90;;;;;;5065011;28;19905;-79
2022/01/27 04:38:41;;;;;;;;;;;-0.90;99.90;;;;;;5065154;28;19926;-80
2022/01/27 04:41:23;;;;;;;;;;;-0.90;99.90;;;;;;5069818;28;19917;-79
2022/01/27 04:46:28;;;;;;;;;;;-0.90;99.90;;;;;;5070003;28;19936;-80
2022/01/27 04:48:58;;;;;;;;;;;-0.80;99.90;;;;;;5070232;28;19940;-80
2022/01/27 04:51:24;;;;;;;;;;;-0.90;99.90;;;;;;5070659;28;19904;-81
2022/01/27 04:56:17;;;;;;;;;;;-0.80;99.90;;;;;;5068899;28;20692;-80
2022/01/27 04:58:46;;;;;;;;;;;-0.80;99.90;;;;;;5066571;28;19931;-79
2022/01/27 05:01:12;;;;;;;;;;;-0.80;99.90;;;;;;5066723;28;19913;-81
2022/01/27 05:03:43;;;;;;;;;;;-0.70;99.90;;;;;;5065472;28;19947;-80
2022/01/27 05:06:09;;;;;;;;;;;-0.70;99.90;;;;;;5065748;28;20013;-79
2022/01/27 05:08:35;;;;;;;;;;;-0.80;99.90;;;;;;5066549;28;19975;-79
2022/01/27 05:11:07;;;;;;;;;;;-0.80;99.90;;;;;;5066564;28;20337;-80
2022/01/27 05:13:40;;;;;;;;;;;-0.80;99.90;;;;;;5064609;28;19940;-80
2022/01/27 05:16:06;;;;;;;;;;;-0.80;99.90;;;;;;5065734;28;19911;-80
2022/01/27 05:18:32;;;;;;;;;;;-0.90;99.90;;;;;;5066595;28;20356;-80
2022/01/27 05:20:57;;;;;;;;;;;-0.90;99.90;;;;;;5067913;28;19917;-80
2022/01/27 05:23:23;;;;;;;;;;;-0.80;99.90;;;;;;5068411;28;19916;-80
2022/01/27 05:25:48;;;;;;;;;;;-0.80;99.90;;;;;;5067713;28;19972;-80
2022/01/27 05:28:14;;;;;;;;;;;-0.80;99.90;;;;;;5069996;28;19909;-80
2022/01/27 05:30:39;;;;;;;;;;;-0.70;99.90;;;;;;5070578;28;19932;-80
2022/01/27 05:33:05;;;;;;;;;;;-0.80;99.90;;;;;;5072984;28;19908;-79
2022/01/27 05:35:31;;;;;;;;;;;-0.80;99.90;;;;;;5076769;28;19889;-81
2022/01/27 05:37:56;;;;;;;;;;;-0.80;99.90;;;;;;5070331;28;19975;-80
2022/01/27 05:40:22;;;;;;;;;;;-0.80;99.90;;;;;;5075380;28;19968;-80
2022/01/27 05:42:47;;;;;;;;;;;-0.90;99.90;;;;;;5065730;28;19920;-79
2022/01/27 05:45:13;;;;;;;;;;;-0.80;99.90;;;;;;5065763;28;19905;-80
2022/01/27 05:47:38;;;;;;;;;;;-0.80;99.90;;;;;;5061058;28;20421;-78
2022/01/27 05:50:04;;;;;;;;;;;-0.80;99.90;;;;;;5048759;28;19954;-78
2022/01/27 05:52:31;;;;;;;;;;;-0.70;99.90;;;;;;5049484;28;19919;-79
2022/01/27 05:54:56;;;;;;;;;;;-0.70;99.90;;;;;;5048522;28;19916;-78
2022/01/27 05:57:22;;;;;;;;;;;-0.60;99.90;;;;;;5050122;28;20301;-79
2022/01/27 05:59:48;;;;;;;;;;;-0.60;99.90;;;;;;5050455;28;20318;-77
2022/01/27 06:02:13;;;;;;;;;;;-0.50;99.90;;;;;;5048199;28;20471;-77
2022/01/27 06:04:39;;;;;;;;;;;-0.50;99.90;;;;;;5049863;28;19919;-77
2022/01/27 06:07:04;;;;;;;;;;;-0.40;99.90;;;;;;5049731;28;19915;-78
2022/01/27 06:09:30;;;;;;;;;;;-0.40;99.90;;;;;;5049746;28;19904;-78
2022/01/27 06:11:55;;;;;;;;;;;-0.30;99.90;;;;;;5048685;28;19940;-78
2022/01/27 06:14:21;;;;;;;;;;;-0.30;99.90;;;;;;5048453;28;19994;-77
2022/01/27 06:16:46;;;;;;;;;;;-0.20;99.90;;;;;;5049162;28;20380;-78
2022/01/27 06:19:13;;;;;;;;;;;-0.10;99.90;;;;;;5047980;28;19944;-77
2022/01/27 06:21:39;;;;;;;;;;;-0.10;99.90;;;;;;5049110;28;19919;-78
2022/01/27 06:24:05;;;;;;;;;;;0.00;99.90;;;;;;5031965;28;20412;-77
2022/01/27 06:26:31;;;;;;;;;;;0.10;99.90;;;;;;5048652;28;19909;-78
2022/01/27 06:28:57;;;;;;;;;;;0.10;99.90;;;;;;5048606;28;19909;-78
2022/01/27 06:31:23;;;;;;;;;;;0.20;99.90;;;;;;5047949;28;19908;-77
2022/01/27 06:33:48;;;;;;;;;;;0.30;99.90;;;;;;5050531;28;19916;-77
2022/01/27 06:36:14;;;;;;;;;;;0.30;99.90;;;;;;5052571;28;19951;-77
2022/01/27 06:38:40;;;;;;;;;;;0.40;99.90;;;;;;5050530;28;19909;-77
2022/01/27 06:41:05;;;;;;;;;;;0.40;99.90;;;;;;5050530;28;20003;-78
2022/01/27 06:43:31;;;;;;;;;;;0.40;99.90;;;;;;5050256;28;19915;-78
2022/01/27 06:45:56;;;;;;;;;;;0.50;99.90;;;;;;5051737;28;19909;-77
2022/01/27 06:48:22;;;;;;;;;;;0.60;99.90;;;;;;5052266;28;20396;-78
2022/01/27 06:50:54;;;;;;;;;;;0.60;99.90;;;;;;5053582;28;19975;-77
2022/01/27 06:53:21;;;;;;;;;;;0.60;99.90;;;;;;5055807;28;19911;-77
2022/01/27 06:55:46;;;;;;;;;;;0.60;99.90;;;;;;5053114;28;20369;-78
2022/01/27 06:58:12;;;;;;;;;;;0.70;99.90;;;;;;5052217;28;19908;-78
2022/01/27 07:00:37;;;;;;;;;;;0.70;99.90;;;;;;5051957;28;19986;-77
2022/01/27 07:03:03;;;;;;;;;;;0.70;99.90;;;;;;5050893;28;19915;-78
2022/01/27 07:05:31;;;;;;;;;;;0.80;99.90;;;;;;5053816;28;20305;-78
2022/01/27 07:07:57;;;;;;;;;;;0.80;99.90;;;;;;5054515;28;20296;-77
2022/01/27 07:10:22;;;;;;;;;;;0.80;99.90;;;;;;5052392;28;19905;-77
2022/01/27 07:12:48;;;;;;;;;;;0.90;99.90;;;;;;5051688;28;19908;-77
2022/01/27 07:15:13;;;;;;;;;;;0.90;99.90;;;;;;5050420;28;19905;-77
2022/01/27 07:17:39;;;;;;;;;;;0.90;99.90;;;;;;5052088;28;19913;-78
2022/01/27 07:20:05;;;;;;;;;;;1.00;99.90;;;;;;5053313;28;19931;-78
2022/01/27 07:22:31;;;;;;;;;;;1.00;99.90;;;;;;5054504;28;20003;-78
2022/01/27 07:24:58;;;;;;;;;;;0.90;99.90;;;;;;5052929;28;19924;-78
2022/01/27 07:27:24;;;;;;;;;;;1.00;99.90;;;;;;5052272;28;20347;-78
2022/01/27 07:29:49;;;;;;;;;;;1.10;99.90;;;;;;5050805;28;20322;-77
2022/01/27 07:32:15;;;;;;;;;;;1.00;99.90;;;;;;5050705;28;19923;-76
2022/01/27 07:34:40;;;;;;;;;;;1.10;99.90;;;;;;5049571;28;20365;-76
2022/01/27 07:37:06;;;;;;;;;;;1.20;99.90;;;;;;5050242;28;19909;-77
2022/01/27 07:39:32;;;;;;;;;;;1.20;99.90;;;;;;5051120;28;19904;-77
2022/01/27 07:42:00;;;;;;;;;;;1.20;99.90;;;;;;5050975;28;20035;-77
2022/01/27 07:44:26;;;;;;;;;;;1.30;99.90;;;;;;5052474;28;20331;-77
2022/01/27 07:46:51;;;;;;;;;;;1.40;99.90;;;;;;5051453;28;20369;-77
2022/01/27 07:49:17;;;;;;;;;;;1.50;99.90;;;;;;5052178;28;19923;-77
2022/01/27 07:51:42;;;;;;;;;;;1.60;99.90;;;;;;5053950;28;19915;-77
2022/01/27 07:54:08;;;;;;;;;;;1.70;99.90;;;;;;5054203;28;19904;-77
2022/01/27 07:56:33;;;;;;;;;;;1.80;99.90;;;;;;5055182;28;19905;-76
2022/01/27 07:58:59;;;;;;;;;;;1.90;99.90;;;;;;5054259;28;19915;-77
2022/01/27 08:01:25;;;;;;;;;;;2.00;99.90;;;;;;5052424;28;19923;-78
2022/01/27 08:03:50;;;;;;;;;;;2.00;99.90;;;;;;5055434;28;19909;-78
2022/01/27 08:06:16;;;;;;;;;;;2.10;99.90;;;;;;5054817;28;19950;-78
2022/01/27 08:08:43;;;;;;;;;;;2.10;99.90;;;;;;5054638;28;19976;-78
2022/01/27 08:11:08;;;;;;;;;;;2.10;99.90;;;;;;5057039;28;19912;-78
2022/01/27 08:13:34;;;;;;;;;;;2.20;99.90;;;;;;5060216;28;19984;-77
2022/01/27 08:15:59;;;;;;;;;;;2.30;99.90;;;;;;5070186;28;19919;-78
2022/01/27 08:18:25;;;;;;;;;;;2.30;99.90;;;;;;5065642;28;20277;-78
2022/01/27 08:20:50;;;;;;;;;;;2.30;99.90;;;;;;5055698;28;19931;-79
2022/01/27 08:23:16;;;;;;;;;;;2.40;99.90;;;;;;5055726;28;19913;-78
2022/01/27 08:25:42;;;;;;;;;;;2.50;99.90;;;;;;5056318;28;19905;-78
2022/01/27 08:28:19;;;;;;;;;;;2.50;99.90;;;;;;5054359;28;19962;-77
2022/01/27 08:30:48;;;;;;;;;;;2.80;99.90;;;;;;5053335;28;19909;-77
2022/01/27 08:33:17;;;;;;;;;;;3.10;99.90;;;;;;5052602;28;20274;-77
2022/01/27 08:35:43;;;;;;;;;;;3.60;99.90;;;;;;5051596;28;19905;-79
2022/01/27 08:38:08;;;;;;;;;;;4.00;99.90;;;;;;5053085;28;20377;-78
2022/01/27 08:40:34;;;;;;;;;;;4.40;99.90;;;;;;5058849;28;20679;-77
2022/01/27 08:43:00;;;;;;;;;;;4.60;99.90;;;;;;5051621;28;19919;-78
2022/01/27 08:45:26;;;;;;;;;;;4.60;99.90;;;;;;5050085;28;19951;-76
2022/01/27 08:47:54;;;;;;;;;;;4.50;99.90;;;;;;5051172;28;19905;-77
2022/01/27 08:50:21;;;;;;;;;;;4.30;99.90;;;;;;5051516;28;19909;-77
2022/01/27 08:52:47;;;;;;;;;;;4.20;99.90;;;;;;5051525;28;20810;-77
2022/01/27 08:55:12;;;;;;;;;;;4.20;99.90;;;;;;5052917;28;19905;-78
2022/01/27 08:57:38;;;;;;;;;;;4.00;99.90;;;;;;5053009;28;20266;-78
2022/01/27 09:00:05;;;;;;;;;;;4.00;99.90;;;;;;5053094;28;19909;-78
2022/01/27 09:02:31;;;;;;;;;;;3.90;99.90;;;;;;5051879;28;19960;-77
2022/01/27 09:04:56;;;;;;;;;;;3.90;99.90;;;;;;5054117;28;19956;-78
2022/01/27 09:07:22;;;;;;;;;;;3.90;99.90;;;;;;5051533;28;20284;-77
2022/01/27 09:09:47;;;;;;;;;;;3.90;99.90;;;;;;5051900;28;19905;-79
2022/01/27 09:12:13;;;;;;;;;;;3.90;99.90;;;;;;5051977;28;19950;-77
2022/01/27 09:14:41;;;;;;;;;;;3.90;99.90;;;;;;5050960;28;20143;-79
2022/01/27 09:17:08;;;;;;;;;;;4.00;99.90;;;;;;5052880;28;19905;-77
2022/01/27 09:19:37;;;;;;;;;;;4.00;99.90;;;;;;5050906;28;20247;-79
2022/01/27 09:22:08;;;;;;;;;;;3.90;99.90;;;;;;5050795;28;19923;-78
2022/01/27 09:24:40;;;;;;;;;;;3.90;99.90;;;;;;5051630;28;20429;-76
2022/01/27 09:27:06;;;;;;;;;;;3.90;99.90;;;;;;5050599;28;19914;-77
2022/01/27 09:29:31;;;;;;;;;;;3.90;99.90;;;;;;5051722;28;20285;-77
2022/01/27 09:31:57;;;;;;;;;;;3.90;99.90;;;;;;5053142;28;19909;-78
2022/01/27 09:34:23;;;;;;;;;;;3.90;99.90;;;;;;5052649;28;20324;-77
2022/01/27 09:36:49;;;;;;;;;;;3.90;99.90;;;;;;5051550;28;20011;-77
2022/01/27 09:39:15;;;;;;;;;;;3.90;99.90;;;;;;5051344;28;20376;-77
2022/01/27 09:41:42;;;;;;;;;;;3.90;99.90;;;;;;5052706;28;20452;-76
2022/01/27 09:44:10;;;;;;;;;;;3.90;99.90;;;;;;5051517;28;19909;-78
2022/01/27 09:46:36;;;;;;;;;;;3.90;99.90;;;;;;5054035;28;19904;-79
2022/01/27 09:49:13;;;;;;;;;;;4.00;99.90;;;;;;5053361;28;20008;-76
2022/01/27 09:51:43;;;;;;;;;;;4.10;99.90;;;;;;5053595;28;19911;-77
2022/01/27 09:54:09;;;;;;;;;;;4.20;99.90;;;;;;5052680;28;19909;-78
2022/01/27 09:56:35;;;;;;;;;;;4.30;99.90;;;;;;5053016;28;19909;-78
2022/01/27 09:59:01;;;;;;;;;;;4.30;99.90;;;;;;5050894;28;19909;-77
2022/01/27 10:01:26;;;;;;;;;;;4.50;99.90;;;;;;5052033;28;20448;-79
2022/01/27 10:03:59;;;;;;;;;;;4.60;99.90;;;;;;5052851;28;19955;-79
2022/01/27 10:06:29;;;;;;;;;;;4.60;99.90;;;;;;5053253;28;19909;-78
2022/01/27 10:09:13;;;;;;;;;;;4.50;99.90;;;;;;5059209;28;19912;-77
2022/01/27 10:11:39;;;;;;;;;;;4.50;99.90;;;;;;5061969;28;19904;-79
2022/01/27 10:14:24;;;;;;;;;;;4.40;99.90;;;;;;5053290;28;19909;-79
2022/01/27 10:16:54;;;;;;;;;;;4.20;99.90;;;;;;5053162;28;19959;-77
2022/01/27 10:19:20;;;;;;;;;;;4.20;99.90;;;;;;5050805;28;20019;-77
2022/01/27 10:21:47;;;;;;;;;;;4.20;99.90;;;;;;5054737;28;20031;-79
2022/01/27 10:24:19;;;;;;;;;;;4.20;99.90;;;;;;5054984;28;19955;-78
2022/01/27 10:26:52;;;;;;;;;;;4.40;99.90;;;;;;5050591;28;19909;-77
2022/01/27 10:29:30;;;;;;;;;;;4.50;99.90;;;;;;5050116;28;19908;-78
2022/01/27 10:32:03;;;;;;;;;;;4.60;99.90;;;;;;5053294;28;19930;-78
2022/01/27 10:34:29;;;;;;;;;;;4.90;99.90;;;;;;5069516;28;20308;-81
2022/01/27 10:36:55;;;;;;;;;;;4.90;99.90;;;;;;5076544;28;19939;-81
2022/01/27 10:39:20;;;;;;;;;;;4.80;99.90;;;;;;5077417;28;19888;-81
2022/01/27 10:41:57;;;;;;;;;;;4.80;99.90;;;;;;5076525;28;19913;-81
2022/01/27 10:44:31;;;;;;;;;;;4.80;99.90;;;;;;5078915;28;19909;-82
2022/01/27 10:47:11;;;;;;;;;;;4.80;99.90;;;;;;5077013;28;19893;-81
2022/01/27 10:49:42;;;;;;;;;;;4.90;99.90;;;;;;5078170;28;19893;-81
2022/01/27 10:52:12;;;;;;;;;;;5.10;99.90;;;;;;5077034;28;19943;-81
2022/01/27 10:54:40;;;;;;;;;;;5.10;99.90;;;;;;5077973;28;19900;-80
2022/01/27 10:57:16;;;;;;;;;;;5.10;99.90;;;;;;5079634;28;19915;-80
2022/01/27 10:59:42;;;;;;;;;;;5.10;99.90;;;;;;5079428;28;19900;-81
2022/01/27 11:02:08;;;;;;;;;;;5.10;99.90;;;;;;5078199;28;19900;-81
2022/01/27 12:30:24;;;;;;;;;;;5.00;99.90;;;;;;5997405;23;19925;-79
2022/01/27 12:32:53;;;;;;;;;;;5.10;99.90;;;;;;5044959;28;19925;-78
2022/01/27 12:35:19;;;;;;;;;;;5.20;99.90;;;;;;5040202;28;19960;-78
2022/01/27 12:37:46;;;;;;;;;;;5.20;99.90;;;;;;5030770;28;20285;-78
2022/01/27 12:40:15;;;;;;;;;;;5.10;99.90;;;;;;5034477;28;20007;-77
2022/01/27 12:42:47;;;;;;;;;;;5.10;99.90;;;;;;5071315;28;19927;-79
2022/01/27 12:45:26;;;;;;;;;;;5.10;99.90;;;;;;5078591;28;19940;-79
2022/01/27 12:47:52;;;;;;;;;;;5.10;99.90;;;;;;5065062;28;19960;-80
2022/01/27 12:50:39;;;;;;;;;;;5.10;99.90;;;;;;5077544;28;19912;-80
2022/01/27 12:56:10;;;;;;;;;;;5.00;99.90;;;;;;5081328;28;19899;-80
2022/01/27 13:21:52;;;;;;;;;;;4.70;99.90;;;;;;5015495;28;20581;-79
2022/01/27 13:24:19;;;;;;;;;;;4.60;99.90;;;;;;5014782;28;19905;-79
2022/01/27 13:26:46;;;;;;;;;;;4.60;99.90;;;;;;5015104;28;19910;-79
2022/01/27 13:29:16;;;;;;;;;;;4.50;99.90;;;;;;4996807;28;20286;-77
2022/01/27 13:31:44;;;;;;;;;;;4.40;99.90;;;;;;4994135;28;20001;-77
2022/01/27 13:34:09;;;;;;;;;;;4.50;99.90;;;;;;5011284;28;20503;-77
2022/01/27 13:36:36;;;;;;;;;;;4.50;99.90;;;;;;4996569;28;20019;-79
2022/01/27 13:41:32;;;;;;;;;;;4.60;99.90;;;;;;5020089;28;19917;-78
2022/01/27 13:44:01;;;;;;;;;;;4.60;99.90;;;;;;5022808;28;19912;-78
2022/01/27 13:46:33;;;;;;;;;;;4.50;99.90;;;;;;5009168;28;19976;-77
2022/01/27 13:49:06;;;;;;;;;;;4.40;99.90;;;;;;5006878;28;19909;-79
2022/01/27 13:51:32;;;;;;;;;;;4.30;99.90;;;;;;5003920;28;19927;-78
2022/01/27 13:53:58;;;;;;;;;;;4.30;99.90;;;;;;5017417;28;20004;-78
2022/01/27 13:56:24;;;;;;;;;;;4.20;99.90;;;;;;4998414;28;19920;-78
2022/01/27 13:59:09;;;;;;;;;;;4.20;99.90;;;;;;5011713;28;19991;-78
2022/01/27 14:01:34;;;;;;;;;;;4.20;99.90;;;;;;5013122;28;19936;-78
2022/01/27 14:04:00;;;;;;;;;;;4.30;99.90;;;;;;4993046;28;19916;-76
2022/01/27 14:06:25;;;;;;;;;;;4.40;99.90;;;;;;5010972;28;19952;-77
2022/01/27 14:08:56;;;;;;;;;;;4.40;99.90;;;;;;5009955;28;19913;-75
2022/01/27 14:11:35;;;;;;;;;;;4.40;99.90;;;;;;5009674;28;19967;-78
2022/01/27 14:14:03;;;;;;;;;;;4.50;99.90;;;;;;5012647;28;19910;-77
2022/01/27 14:16:30;;;;;;;;;;;4.40;99.90;;;;;;4995323;28;19905;-77
2022/01/27 14:18:56;;;;;;;;;;;4.60;99.90;;;;;;4993585;28;19952;-78
2022/01/27 14:21:23;;;;;;;;;;;4.60;99.90;;;;;;4993618;28;20117;-78
2022/01/27 14:28:53;;;;;;;;;;;4.50;99.90;;;;;;5020174;28;19917;-78
2022/01/27 14:31:19;;;;;;;;;;;4.40;99.90;;;;;;5016705;28;19905;-78
2022/01/27 14:33:45;;;;;;;;;;;4.30;99.90;;;;;;4994884;28;19992;-79
2022/01/27 14:36:11;;;;;;;;;;;4.30;99.90;;;;;;4997367;28;19948;-78
2022/01/27 14:38:37;;;;;;;;;;;4.30;99.90;;;;;;5019289;28;20393;-78
2022/01/27 14:41:03;;;;;;;;;;;4.20;99.90;;;;;;5020909;28;19964;-78
2022/01/27 14:43:30;;;;;;;;;;;4.10;99.90;;;;;;5019402;28;19929;-79
2022/01/27 14:45:56;;;;;;;;;;;4.10;99.90;;;;;;5003035;28;19932;-79
2022/01/27 14:48:21;;;;;;;;;;;3.90;99.90;;;;;;5005386;28;19980;-79
2022/01/27 14:50:47;;;;;;;;;;;3.90;99.90;;;;;;5003995;28;19909;-78
2022/01/27 14:53:13;;;;;;;;;;;3.80;99.90;;;;;;5012568;28;19912;-79
2022/01/27 14:55:39;;;;;;;;;;;3.70;99.90;;;;;;5003440;28;19909;-79
2022/01/27 14:58:04;;;;;;;;;;;3.60;99.90;;;;;;5002119;28;19915;-79
2022/01/27 15:00:30;;;;;;;;;;;3.50;99.90;;;;;;5018489;28;19909;-79
2022/01/27 15:02:55;;;;;;;;;;;3.40;99.90;;;;;;5018472;28;19905;-79
2022/01/27 15:05:21;;;;;;;;;;;3.30;99.90;;;;;;5000350;28;19913;-78
2022/01/27 15:07:47;;;;;;;;;;;3.20;99.90;;;;;;5000660;28;20277;-79
2022/01/27 15:10:15;;;;;;;;;;;3.10;99.90;;;;;;5019098;28;19963;-79
2022/01/27 15:12:41;;;;;;;;;;;3.00;99.90;;;;;;5001430;28;20504;-78
2022/01/27 15:20:35;;;;;;;;;;;2.90;99.90;;;;;;5018013;28;19940;-79
2022/01/27 15:23:01;;;;;;;;;;;2.80;99.90;;;;;;4999669;28;20481;-78
2022/01/27 15:25:27;;;;;;;;;;;2.70;99.90;;;;;;5000821;28;20250;-79
2022/01/27 15:27:53;;;;;;;;;;;2.70;99.90;;;;;;5000951;28;19917;-79
2022/01/27 15:30:19;;;;;;;;;;;2.70;99.90;;;;;;5019403;28;19928;-79
2022/01/27 15:32:45;;;;;;;;;;;2.60;99.90;;;;;;5001706;28;19909;-78
2022/01/27 15:35:13;;;;;;;;;;;2.60;99.90;;;;;;5000988;28;19910;-79
2022/01/27 15:37:40;;;;;;;;;;;2.60;99.90;;;;;;5019757;28;19910;-79
2022/01/27 15:40:09;;;;;;;;;;;2.60;99.90;;;;;;5002237;28;19929;-79
2022/01/27 15:42:35;;;;;;;;;;;2.50;99.90;;;;;;5019656;28;20382;-78
2022/01/27 15:45:00;;;;;;;;;;;2.40;99.90;;;;;;5019516;28;19953;-78
2022/01/27 15:47:27;;;;;;;;;;;2.30;99.90;;;;;;5001714;28;19913;-79
2022/01/27 15:49:53;;;;;;;;;;;2.20;99.90;;;;;;5019105;28;19949;-79
2022/01/27 15:52:19;;;;;;;;;;;2.20;99.90;;;;;;5020437;28;19916;-79
2022/01/27 15:54:45;;;;;;;;;;;2.10;99.90;;;;;;5000531;28;19909;-78
2022/01/27 15:57:11;;;;;;;;;;;2.00;99.90;;;;;;4995794;28;20803;-77
2022/01/27 15:59:36;;;;;;;;;;;2.00;99.90;;;;;;5010912;28;19952;-79
2022/01/27 16:02:02;;;;;;;;;;;1.90;99.90;;;;;;4994588;28;19913;-77
2022/01/27 16:04:28;;;;;;;;;;;1.90;99.90;;;;;;4991876;28;20398;-77
2022/01/27 16:06:53;;;;;;;;;;;1.80;99.90;;;;;;4991977;28;19917;-77
2022/01/27 16:09:19;;;;;;;;;;;1.70;99.90;;;;;;4992794;28;19959;-76
2022/01/27 16:11:45;;;;;;;;;;;1.60;99.90;;;;;;4992117;28;20362;-77
2022/01/27 16:14:10;;;;;;;;;;;1.60;99.90;;;;;;5010474;28;19956;-77
2022/01/27 16:16:36;;;;;;;;;;;1.50;99.90;;;;;;4992273;28;20009;-78
2022/01/27 16:19:06;;;;;;;;;;;1.50;99.90;;;;;;5009158;28;19915;-77
2022/01/27 16:21:32;;;;;;;;;;;1.50;99.90;;;;;;5008952;28;20009;-78
2022/01/27 16:23:58;;;;;;;;;;;1.40;99.90;;;;;;4993954;28;19963;-77
2022/01/27 16:26:23;;;;;;;;;;;1.40;99.90;;;;;;4997237;28;19937;-77
2022/01/27 16:28:49;;;;;;;;;;;1.40;99.90;;;;;;4997050;28;19906;-78
2022/01/27 16:31:15;;;;;;;;;;;1.40;99.90;;;;;;5017658;28;20374;-76
2022/01/27 16:33:40;;;;;;;;;;;1.40;99.90;;;;;;4993345;28;19979;-75
2022/01/27 16:36:06;;;;;;;;;;;1.40;99.90;;;;;;4994288;28;19913;-77
2022/01/27 16:38:32;;;;;;;;;;;1.40;99.90;;;;;;5014588;28;19910;-76
2022/01/27 16:40:57;;;;;;;;;;;1.40;99.90;;;;;;5016314;28;19936;-76
2022/01/27 16:43:23;;;;;;;;;;;1.50;99.90;;;;;;4997870;28;19960;-77
2022/01/27 16:45:49;;;;;;;;;;;1.40;99.90;;;;;;4996120;28;19909;-78
2022/01/27 16:48:16;;;;;;;;;;;1.40;99.90;;;;;;5017767;28;20386;-76
2022/01/27 16:50:42;;;;;;;;;;;1.30;99.90;;;;;;5000961;28;20441;-77
2022/01/27 16:53:07;;;;;;;;;;;1.30;99.90;;;;;;5013274;28;19933;-77
2022/01/27 16:55:33;;;;;;;;;;;1.30;99.90;;;;;;5015792;28;19948;-78
2022/01/27 16:58:00;;;;;;;;;;;1.30;99.90;;;;;;5015368;28;19909;-78
2022/01/27 17:00:25;;;;;;;;;;;1.30;99.90;;;;;;5012676;28;19910;-78
2022/01/27 17:02:51;;;;;;;;;;;1.30;99.90;;;;;;5016247;28;19915;-76
2022/01/27 17:05:16;;;;;;;;;;;1.20;99.90;;;;;;4998300;28;19909;-78
2022/01/27 17:07:42;;;;;;;;;;;1.10;99.90;;;;;;4995940;28;20265;-78
2022/01/27 17:10:07;;;;;;;;;;;1.00;99.90;;;;;;4995861;28;19916;-77
2022/01/27 17:12:33;;;;;;;;;;;0.90;99.90;;;;;;5015353;28;19916;-78
2022/01/27 17:14:58;;;;;;;;;;;0.90;99.90;;;;;;5000972;28;19920;-78